Wind From: 11-12-2017 04:25 Until: 16:00 warning for: Wind Level: Orange info button

Power and phone distribution networks may be disrupted for relatively long periods., Roofs and chimneys can be damaged. , Tree branches may break. , Vehicles can be deported. , Traffic may be disrupted, particularly on secondary roads in forest areas. Limit your trips. , Limit your speed in highway driving, especially if you drive a vehicle or hitch sensitive to wind. , Do not go for walks in forests or along the coast., In town, be vigilant against possible falling objects., Do not work on roofs and do not touch any electrical line fallen on the ground., Store or secure sensitive objects to wind or likely to be damaged., Always install power generators outside buildings. 


Meteo18 Weather Cam more information Meteo18 Weather Cam


Thunder radar more information blitzortung!


Rain radar more information rain snow radar


Visit our other weather sites:

Template documentation
and downloads

And another site



Weather Underground History page Text

Daily Summary for September 30, 2017 Units:  Both    English   Metric
« Previous Day
Next Day »
Daily Weekly Monthly Yearly Custom
  High: Low: Average:
Temperature: 64.2 °F /  17.9 °C 48.7 °F /  9.3 °C 58.3 °F /  14.6 °C
Dew Point: 60.8 °F /  16.0 °C 46.8 °F /  8.2 °C 53.8 °F /  12.1 °C
Humidity: 96 % 62 % 85 %
Wind Speed: 10 mph /  16.1 km/h - 1.6 mph /  2.6 km/h
Wind Gust: 17 mph /  27.4 km/h - -
Wind:- - West
Pressure: 30.2 in /  1022.9 hPa 30.1 in /  1018.5 hPa -
Precipitation: 0.44 in /  11.2 mm    
Historical Graphs
 
 
Tabular Data for September 30, 2017
Time Temperature Dew Point Pressure Wind Wind Speed Wind Gust Humidity Rainfall Rate (Hourly)
00:02 62.4 °F /  16.9 °C 58.5 °F /  14.7 °C 30.1 in /  1019.2 hPa WNW 2 mph /  3.2 km/h 2 mph /  3.2 km/h 87 % 0 in /  0.0 mm
00:12 63 °F /  17.2 °C 58.6 °F /  14.8 °C 30.1 in /  1019.2 hPa Calm   3 mph /  4.8 km/h 86 % 0 in /  0.0 mm
00:17 63.1 °F /  17.3 °C 58.8 °F /  14.9 °C 30.1 in /  1019.2 hPa WNW 1 mph /  1.6 km/h 3 mph /  4.8 km/h 86 % 0 in /  0.0 mm
00:22 63.7 °F /  17.6 °C 58.8 °F /  14.9 °C 30.1 in /  1019.2 hPa North 1 mph /  1.6 km/h 3 mph /  4.8 km/h 84 % 0 in /  0.0 mm
00:32 64 °F /  17.8 °C 58.8 °F /  14.9 °C 30.1 in /  1019.2 hPa NNE 1 mph /  1.6 km/h 2 mph /  3.2 km/h 83 % 0 in /  0.0 mm
00:42 63.9 °F /  17.7 °C 58.6 °F /  14.8 °C 30.1 in /  1018.8 hPa Calm   2 mph /  3.2 km/h 83 % 0 in /  0.0 mm
00:52 64.2 °F /  17.9 °C 58.6 °F /  14.8 °C 30.1 in /  1018.8 hPa Calm   1 mph /  1.6 km/h 82 % 0 in /  0.0 mm
00:57 63.9 °F /  17.7 °C 58.6 °F /  14.8 °C 30.1 in /  1018.5 hPa Calm     83 % 0 in /  0.0 mm
01:02 63.9 °F /  17.7 °C 58.6 °F /  14.8 °C 30.1 in /  1018.5 hPa Calm   1 mph /  1.6 km/h 83 % 0 in /  0.0 mm
01:12 63.1 °F /  17.3 °C 58.3 °F /  14.6 °C 30.1 in /  1018.5 hPa Calm   1 mph /  1.6 km/h 84 % 0 in /  0.0 mm
01:17 62.8 °F /  17.1 °C 58.3 °F /  14.6 °C 30.1 in /  1018.8 hPa Calm   1 mph /  1.6 km/h 85 % 0 in /  0.0 mm
01:22 62.4 °F /  16.9 °C 58.1 °F /  14.5 °C 30.1 in /  1018.8 hPa Calm     86 % 0 in /  0.0 mm
01:32 62.2 °F /  16.8 °C 58.3 °F /  14.6 °C 30.1 in /  1018.8 hPa Calm   1 mph /  1.6 km/h 87 % 0 in /  0.0 mm
01:42 62.1 °F /  16.7 °C 58.5 °F /  14.7 °C 30.1 in /  1018.5 hPa Calm   1 mph /  1.6 km/h 88 % 0 in /  0.0 mm
01:47 62.1 °F /  16.7 °C 58.5 °F /  14.7 °C 30.1 in /  1018.5 hPa Calm   2 mph /  3.2 km/h 88 % 0 in /  0.0 mm
01:52 62.1 °F /  16.7 °C 58.5 °F /  14.7 °C 30.1 in /  1018.5 hPa Calm   2 mph /  3.2 km/h 88 % 0 in /  0.0 mm
01:57 62.4 °F /  16.9 °C 58.8 °F /  14.9 °C 30.1 in /  1018.5 hPa Calm   2 mph /  3.2 km/h 88 % 0 in /  0.0 mm
02:02 62.4 °F /  16.9 °C 58.8 °F /  14.9 °C 30.1 in /  1018.5 hPa Calm   1 mph /  1.6 km/h 88 % 0 in /  0.0 mm
02:12 62.4 °F /  16.9 °C 59.2 °F /  15.1 °C 30.1 in /  1018.8 hPa Calm   1 mph /  1.6 km/h 89 % 0 in /  0.0 mm
02:17 62.4 °F /  16.9 °C 59.2 °F /  15.1 °C 30.1 in /  1018.8 hPa Calm   1 mph /  1.6 km/h 89 % 0 in /  0.0 mm
02:22 62.6 °F /  17.0 °C 59.5 °F /  15.3 °C 30.1 in /  1018.8 hPa NW 1 mph /  1.6 km/h 1 mph /  1.6 km/h 90 % 0 in /  0.0 mm
02:32 63.3 °F /  17.4 °C 60.3 °F /  15.7 °C 30.1 in /  1019.2 hPa WNW 4 mph /  6.4 km/h 8 mph /  12.9 km/h 90 % 0 in /  0.0 mm
02:42 63.5 °F /  17.5 °C 60.4 °F /  15.8 °C 30.1 in /  1019.2 hPa WNW 5 mph /  8.0 km/h 10 mph /  16.1 km/h 90 % 0 in /  0.0 mm
02:52 63.7 °F /  17.6 °C 60.6 °F /  15.9 °C 30.1 in /  1019.5 hPa NW 1 mph /  1.6 km/h 9 mph /  14.5 km/h 90 % 0 in /  0.0 mm
02:57 63.7 °F /  17.6 °C 60.6 °F /  15.9 °C 30.1 in /  1019.2 hPa WNW 2 mph /  3.2 km/h 9 mph /  14.5 km/h 90 % 0 in /  0.0 mm
03:02 63.9 °F /  17.7 °C 60.8 °F /  16.0 °C 30.1 in /  1019.2 hPa WNW 3 mph /  4.8 km/h 10 mph /  16.1 km/h 90 % 0 in /  0.0 mm
03:12 63.9 °F /  17.7 °C 60.6 °F /  15.9 °C 30.1 in /  1019.2 hPa WNW 4 mph /  6.4 km/h 10 mph /  16.1 km/h 89 % 0 in /  0.0 mm
03:17 63.7 °F /  17.6 °C 60.4 °F /  15.8 °C 30.1 in /  1019.2 hPa North 4 mph /  6.4 km/h 9 mph /  14.5 km/h 89 % 0 in /  0.0 mm
03:27 63.5 °F /  17.5 °C 60.3 °F /  15.7 °C 30.1 in /  1019.2 hPa WNW 2 mph /  3.2 km/h 9 mph /  14.5 km/h 89 % 0 in /  0.0 mm
03:32 63.5 °F /  17.5 °C 60.3 °F /  15.7 °C 30.1 in /  1019.2 hPa NW 2 mph /  3.2 km/h 8 mph /  12.9 km/h 89 % 0 in /  0.0 mm
03:42 63.3 °F /  17.4 °C 59.7 °F /  15.4 °C 30.1 in /  1018.8 hPa Calm   7 mph /  11.3 km/h 88 % 0 in /  0.0 mm
03:52 63.1 °F /  17.3 °C 59.5 °F /  15.3 °C 30.1 in /  1019.2 hPa WNW 1 mph /  1.6 km/h 6 mph /  9.7 km/h 88 % 0 in /  0.0 mm
03:57 63.1 °F /  17.3 °C 59.5 °F /  15.3 °C 30.1 in /  1019.2 hPa WNW 3 mph /  4.8 km/h 6 mph /  9.7 km/h 88 % 0 in /  0.0 mm
04:02 63 °F /  17.2 °C 59.7 °F /  15.4 °C 30.1 in /  1019.2 hPa NW 4 mph /  6.4 km/h 6 mph /  9.7 km/h 89 % 0 in /  0.0 mm
04:12 62.1 °F /  16.7 °C 59.4 °F /  15.2 °C 30.1 in /  1018.8 hPa WNW 1 mph /  1.6 km/h 6 mph /  9.7 km/h 91 % 0.02 in /  0.5 mm
04:17 61.9 °F /  16.6 °C 59.2 °F /  15.1 °C 30.1 in /  1018.8 hPa Calm   6 mph /  9.7 km/h 91 % 0.02 in /  0.5 mm
04:22 61.9 °F /  16.6 °C 59.5 °F /  15.3 °C 30.1 in /  1018.8 hPa NNW 1 mph /  1.6 km/h 5 mph /  8.0 km/h 92 % 0.02 in /  0.5 mm
04:27 61.5 °F /  16.4 °C 59.2 °F /  15.1 °C 30.1 in /  1018.8 hPa NW 1 mph /  1.6 km/h 4 mph /  6.4 km/h 92 % 0.02 in /  0.5 mm
04:32 61.5 °F /  16.4 °C 59.5 °F /  15.3 °C 30.1 in /  1018.8 hPa NW 1 mph /  1.6 km/h 2 mph /  3.2 km/h 93 % 0.02 in /  0.5 mm
04:37 61.5 °F /  16.4 °C 59.5 °F /  15.3 °C 30.1 in /  1018.8 hPa Calm   2 mph /  3.2 km/h 93 % 0.02 in /  0.5 mm
04:42 61.3 °F /  16.3 °C 59.4 °F /  15.2 °C 30.1 in /  1018.8 hPa Calm   3 mph /  4.8 km/h 93 % 0.02 in /  0.5 mm
04:47 61.3 °F /  16.3 °C 59.4 °F /  15.2 °C 30.1 in /  1018.8 hPa West 2 mph /  3.2 km/h 3 mph /  4.8 km/h 93 % 0.02 in /  0.5 mm
04:52 61.3 °F /  16.3 °C 59.4 °F /  15.2 °C 30.1 in /  1018.8 hPa Calm   3 mph /  4.8 km/h 93 % 0.02 in /  0.5 mm
05:12 61.2 °F /  16.2 °C 59.4 °F /  15.2 °C 30.1 in /  1019.2 hPa NW 2 mph /  3.2 km/h 7 mph /  11.3 km/h 94 % 0.02 in /  0.5 mm
05:17 61 °F /  16.1 °C 59.2 °F /  15.1 °C 30.1 in /  1019.2 hPa North 1 mph /  1.6 km/h 7 mph /  11.3 km/h 94 % 0.02 in /  0.5 mm
05:22 61 °F /  16.1 °C 59.2 °F /  15.1 °C 30.1 in /  1019.2 hPa Calm   9 mph /  14.5 km/h 94 % 0.1 in /  2.5 mm
05:32 60.6 °F /  15.9 °C 58.8 °F /  14.9 °C 30.1 in /  1019.2 hPa Calm   5 mph /  8.0 km/h 94 % 0.12 in /  3.0 mm
05:37 60.6 °F /  15.9 °C 58.8 °F /  14.9 °C 30.1 in /  1019.2 hPa Calm   5 mph /  8.0 km/h 94 % 0.12 in /  3.0 mm
05:42 60.6 °F /  15.9 °C 58.8 °F /  14.9 °C 30.1 in /  1019.5 hPa WNW 2 mph /  3.2 km/h 4 mph /  6.4 km/h 94 % 0.14 in /  3.6 mm
05:52 60.4 °F /  15.8 °C 58.6 °F /  14.8 °C 30.1 in /  1019.2 hPa Calm   3 mph /  4.8 km/h 94 % 0.15 in /  3.8 mm
05:57 60.4 °F /  15.8 °C 58.6 °F /  14.8 °C 30.1 in /  1019.2 hPa SW 1 mph /  1.6 km/h 3 mph /  4.8 km/h 94 % 0.15 in /  3.8 mm
06:02 60.4 °F /  15.8 °C 58.6 °F /  14.8 °C 30.1 in /  1019.5 hPa West 3 mph /  4.8 km/h 3 mph /  4.8 km/h 94 % 0.16 in /  4.1 mm
06:12 60.3 °F /  15.7 °C 58.5 °F /  14.7 °C 30.1 in /  1019.5 hPa WNW 2 mph /  3.2 km/h 4 mph /  6.4 km/h 94 % 0.14 in /  3.6 mm
06:17 60.3 °F /  15.7 °C 58.5 °F /  14.7 °C 30.1 in /  1019.5 hPa West 1 mph /  1.6 km/h 4 mph /  6.4 km/h 94 % 0.14 in /  3.6 mm
06:22 60.3 °F /  15.7 °C 58.5 °F /  14.7 °C 30.1 in /  1019.2 hPa Calm   4 mph /  6.4 km/h 94 % 0.08 in /  2.0 mm
06:32 60.1 °F /  15.6 °C 58.3 °F /  14.6 °C 30.1 in /  1019.2 hPa Calm   4 mph /  6.4 km/h 94 % 0.08 in /  2.0 mm
06:42 60.1 °F /  15.6 °C 58.3 °F /  14.6 °C 30.1 in /  1019.5 hPa WNW 2 mph /  3.2 km/h 3 mph /  4.8 km/h 94 % 0.05 in /  1.3 mm
06:47 59.9 °F /  15.5 °C 58.1 °F /  14.5 °C 30.1 in /  1019.5 hPa WNW 1 mph /  1.6 km/h 3 mph /  4.8 km/h 94 % 0.05 in /  1.3 mm
06:52 59.7 °F /  15.4 °C 57.9 °F /  14.4 °C 30.1 in /  1019.5 hPa West 2 mph /  3.2 km/h 4 mph /  6.4 km/h 94 % 0.05 in /  1.3 mm
07:02 59.5 °F /  15.3 °C 57.7 °F /  14.3 °C 30.1 in /  1019.5 hPa Calm   4 mph /  6.4 km/h 94 % 0.05 in /  1.3 mm
07:07 59.5 °F /  15.3 °C 57.7 °F /  14.3 °C 30.1 in /  1019.5 hPa WNW 3 mph /  4.8 km/h 4 mph /  6.4 km/h 94 % 0.05 in /  1.3 mm
07:12 59.5 °F /  15.3 °C 57.7 °F /  14.3 °C 30.1 in /  1019.5 hPa WNW 2 mph /  3.2 km/h 5 mph /  8.0 km/h 94 % 0.05 in /  1.3 mm
07:17 59.5 °F /  15.3 °C 58.1 °F /  14.5 °C 30.1 in /  1019.5 hPa WSW 1 mph /  1.6 km/h 5 mph /  8.0 km/h 95 % 0.05 in /  1.3 mm
07:22 59.4 °F /  15.2 °C 57.9 °F /  14.4 °C 30.1 in /  1019.5 hPa NW 2 mph /  3.2 km/h 7 mph /  11.3 km/h 95 % 0.04 in /  1.0 mm
07:32 57.7 °F /  14.3 °C 55.8 °F /  13.2 °C 30.1 in /  1019.9 hPa WNW 3 mph /  4.8 km/h 17 mph /  27.4 km/h 93 % 0.05 in /  1.3 mm
07:42 57 °F /  13.9 °C 55.2 °F /  12.9 °C 30.1 in /  1020.2 hPa North 3 mph /  4.8 km/h 17 mph /  27.4 km/h 94 % 0.04 in /  1.0 mm
07:47 56.8 °F /  13.8 °C 55.2 °F /  12.9 °C 30.1 in /  1020.2 hPa NW 10 mph /  16.1 km/h 17 mph /  27.4 km/h 94 % 0.04 in /  1.0 mm
07:52 56.5 °F /  13.6 °C 54.9 °F /  12.7 °C 30.1 in /  1020.2 hPa NNW 3 mph /  4.8 km/h 11 mph /  17.7 km/h 94 % 0.04 in /  1.0 mm
07:57 56.1 °F /  13.4 °C 54.5 °F /  12.5 °C 30.1 in /  1020.5 hPa WNW 4 mph /  6.4 km/h 11 mph /  17.7 km/h 94 % 0.04 in /  1.0 mm
08:02 56.1 °F /  13.4 °C 54.7 °F /  12.6 °C 30.1 in /  1020.5 hPa NW 6 mph /  9.7 km/h 11 mph /  17.7 km/h 95 % 0.04 in /  1.0 mm
08:12 55.8 °F /  13.2 °C 54.3 °F /  12.4 °C 30.2 in /  1020.9 hPa NNW 2 mph /  3.2 km/h 10 mph /  16.1 km/h 95 % 0.04 in /  1.0 mm
08:17 55.6 °F /  13.1 °C 54.1 °F /  12.3 °C 30.2 in /  1020.9 hPa NW 9 mph /  14.5 km/h 10 mph /  16.1 km/h 95 % 0.04 in /  1.0 mm
08:22 55.6 °F /  13.1 °C 54.1 °F /  12.3 °C 30.2 in /  1020.9 hPa Calm   12 mph /  19.3 km/h 95 % 0.05 in /  1.3 mm
08:27 55.2 °F /  12.9 °C 53.8 °F /  12.1 °C 30.2 in /  1020.9 hPa WNW 10 mph /  16.1 km/h 12 mph /  19.3 km/h 95 % 0.05 in /  1.3 mm
08:32 55 °F /  12.8 °C 53.6 °F /  12.0 °C 30.2 in /  1020.9 hPa NNW 3 mph /  4.8 km/h 12 mph /  19.3 km/h 95 % 0.06 in /  1.5 mm
08:42 54.9 °F /  12.7 °C 53.4 °F /  11.9 °C 30.2 in /  1020.9 hPa NNW 2 mph /  3.2 km/h 12 mph /  19.3 km/h 95 % 0.07 in /  1.8 mm
08:52 54.7 °F /  12.6 °C 53.2 °F /  11.8 °C 30.2 in /  1020.9 hPa WNW 5 mph /  8.0 km/h 11 mph /  17.7 km/h 95 % 0.08 in /  2.0 mm
08:57 54.7 °F /  12.6 °C 53.6 °F /  12.0 °C 30.2 in /  1020.9 hPa NNW 4 mph /  6.4 km/h 11 mph /  17.7 km/h 96 % 0.08 in /  2.0 mm
09:02 54.7 °F /  12.6 °C 53.6 °F /  12.0 °C 30.2 in /  1020.9 hPa NNW 3 mph /  4.8 km/h 10 mph /  16.1 km/h 96 % 0.08 in /  2.0 mm
09:12 54.7 °F /  12.6 °C 53.6 °F /  12.0 °C 30.2 in /  1020.9 hPa NW 3 mph /  4.8 km/h 8 mph /  12.9 km/h 96 % 0.08 in /  2.0 mm
09:22 54.7 °F /  12.6 °C 53.6 °F /  12.0 °C 30.2 in /  1021.2 hPa WNW 3 mph /  4.8 km/h 8 mph /  12.9 km/h 96 % 0.07 in /  1.8 mm
09:32 54.7 °F /  12.6 °C 53.6 °F /  12.0 °C 30.2 in /  1021.2 hPa NNW 2 mph /  3.2 km/h 8 mph /  12.9 km/h 96 % 0.06 in /  1.5 mm
09:42 54.7 °F /  12.6 °C 53.6 °F /  12.0 °C 30.2 in /  1021.2 hPa NNW 2 mph /  3.2 km/h 6 mph /  9.7 km/h 96 % 0.06 in /  1.5 mm
09:52 54.7 °F /  12.6 °C 53.6 °F /  12.0 °C 30.2 in /  1021.6 hPa NW 1 mph /  1.6 km/h 8 mph /  12.9 km/h 96 % 0.04 in /  1.0 mm
10:02 54.5 °F /  12.5 °C 53.4 °F /  11.9 °C 30.2 in /  1021.2 hPa North 2 mph /  3.2 km/h 8 mph /  12.9 km/h 96 % 0.04 in /  1.0 mm
10:12 54.3 °F /  12.4 °C 53.2 °F /  11.8 °C 30.2 in /  1021.2 hPa NNE 3 mph /  4.8 km/h 9 mph /  14.5 km/h 96 % 0.04 in /  1.0 mm
10:17 54.5 °F /  12.5 °C 53.4 °F /  11.9 °C 30.2 in /  1021.2 hPa NNE 1 mph /  1.6 km/h 9 mph /  14.5 km/h 96 % 0.04 in /  1.0 mm
10:22 54.5 °F /  12.5 °C 53.4 °F /  11.9 °C 30.2 in /  1020.9 hPa North 1 mph /  1.6 km/h 6 mph /  9.7 km/h 96 % 0.05 in /  1.3 mm
10:32 54.5 °F /  12.5 °C 53.4 °F /  11.9 °C 30.2 in /  1020.9 hPa Calm   4 mph /  6.4 km/h 96 % 0.06 in /  1.5 mm
10:42 54.7 °F /  12.6 °C 53.6 °F /  12.0 °C 30.2 in /  1021.2 hPa Calm   4 mph /  6.4 km/h 96 % 0.06 in /  1.5 mm
10:47 54.7 °F /  12.6 °C 53.6 °F /  12.0 °C 30.2 in /  1021.2 hPa Calm   4 mph /  6.4 km/h 96 % 0.06 in /  1.5 mm
10:52 54.9 °F /  12.7 °C 53.8 °F /  12.1 °C 30.2 in /  1021.2 hPa Calm   1 mph /  1.6 km/h 96 % 0.06 in /  1.5 mm
11:02 54.9 °F /  12.7 °C 53.8 °F /  12.1 °C 30.2 in /  1021.6 hPa WNW 1 mph /  1.6 km/h 1 mph /  1.6 km/h 96 % 0.06 in /  1.5 mm
11:12 55 °F /  12.8 °C 54 °F /  12.2 °C 30.2 in /  1021.6 hPa WNW 1 mph /  1.6 km/h 4 mph /  6.4 km/h 96 % 0.05 in /  1.3 mm
11:22 55.2 °F /  12.9 °C 54.1 °F /  12.3 °C 30.2 in /  1021.6 hPa NW 2 mph /  3.2 km/h 6 mph /  9.7 km/h 96 % 0.02 in /  0.5 mm
11:32 55.8 °F /  13.2 °C 54.3 °F /  12.4 °C 30.2 in /  1021.6 hPa WNW 3 mph /  4.8 km/h 6 mph /  9.7 km/h 95 % 0.02 in /  0.5 mm
11:42 55.6 °F /  13.1 °C 54.1 °F /  12.3 °C 30.2 in /  1021.6 hPa Calm   4 mph /  6.4 km/h 95 % 0 in /  0.0 mm
11:47 55.6 °F /  13.1 °C 54 °F /  12.2 °C 30.2 in /  1021.6 hPa West 1 mph /  1.6 km/h 4 mph /  6.4 km/h 94 % 0 in /  0.0 mm
11:52 55.8 °F /  13.2 °C 54.3 °F /  12.4 °C 30.2 in /  1021.6 hPa Calm   4 mph /  6.4 km/h 95 % 0 in /  0.0 mm
12:02 56.1 °F /  13.4 °C 54.7 °F /  12.6 °C 30.2 in /  1021.6 hPa West 3 mph /  4.8 km/h 4 mph /  6.4 km/h 95 % 0 in /  0.0 mm
12:12 56.7 °F /  13.7 °C 55 °F /  12.8 °C 30.2 in /  1021.6 hPa Calm   4 mph /  6.4 km/h 94 % 0 in /  0.0 mm
12:17 56.8 °F /  13.8 °C 54.5 °F /  12.5 °C 30.2 in /  1021.6 hPa WNW 5 mph /  8.0 km/h 5 mph /  8.0 km/h 92 % 0 in /  0.0 mm
12:22 57 °F /  13.9 °C 55 °F /  12.8 °C 30.2 in /  1021.6 hPa Calm   6 mph /  9.7 km/h 93 % 0 in /  0.0 mm
12:32 57.6 °F /  14.2 °C 55 °F /  12.8 °C 30.2 in /  1021.6 hPa Calm   6 mph /  9.7 km/h 91 % 0 in /  0.0 mm
12:42 57.6 °F /  14.2 °C 54 °F /  12.2 °C 30.2 in /  1021.6 hPa WSW 1 mph /  1.6 km/h 7 mph /  11.3 km/h 88 % 0 in /  0.0 mm
12:47 58.3 °F /  14.6 °C 54.5 °F /  12.5 °C 30.2 in /  1021.6 hPa Calm   7 mph /  11.3 km/h 87 % 0 in /  0.0 mm
12:52 58.6 °F /  14.8 °C 53.8 °F /  12.1 °C 30.2 in /  1021.6 hPa Calm   4 mph /  6.4 km/h 84 % 0 in /  0.0 mm
13:02 59.5 °F /  15.3 °C 52.7 °F /  11.5 °C 30.2 in /  1021.6 hPa Calm   4 mph /  6.4 km/h 78 % 0 in /  0.0 mm
13:07 60.1 °F /  15.6 °C 52.9 °F /  11.6 °C 30.2 in /  1021.6 hPa Calm   4 mph /  6.4 km/h 77 % 0 in /  0.0 mm
13:17 61.3 °F /  16.3 °C 53.4 °F /  11.9 °C 30.2 in /  1021.6 hPa SW 2 mph /  3.2 km/h 3 mph /  4.8 km/h 75 % 0 in /  0.0 mm
13:22 61.2 °F /  16.2 °C 52 °F /  11.1 °C 30.2 in /  1021.2 hPa SSW 3 mph /  4.8 km/h 6 mph /  9.7 km/h 72 % 0 in /  0.0 mm
13:32 61.2 °F /  16.2 °C 52.5 °F /  11.4 °C 30.2 in /  1021.2 hPa SW 1 mph /  1.6 km/h 6 mph /  9.7 km/h 73 % 0 in /  0.0 mm
13:42 61.2 °F /  16.2 °C 52.5 °F /  11.4 °C 30.2 in /  1021.2 hPa WSW 3 mph /  4.8 km/h 5 mph /  8.0 km/h 73 % 0 in /  0.0 mm
13:47 61 °F /  16.1 °C 52 °F /  11.1 °C 30.2 in /  1021.2 hPa West 2 mph /  3.2 km/h 5 mph /  8.0 km/h 72 % 0 in /  0.0 mm
13:52 61 °F /  16.1 °C 52.3 °F /  11.3 °C 30.2 in /  1021.2 hPa SW 3 mph /  4.8 km/h 6 mph /  9.7 km/h 73 % 0 in /  0.0 mm
14:02 61.2 °F /  16.2 °C 50.9 °F /  10.5 °C 30.2 in /  1021.2 hPa WNW 7 mph /  11.3 km/h 8 mph /  12.9 km/h 69 % 0 in /  0.0 mm
14:12 61 °F /  16.1 °C 50 °F /  10.0 °C 30.2 in /  1020.9 hPa WNW 4 mph /  6.4 km/h 10 mph /  16.1 km/h 67 % 0 in /  0.0 mm
14:17 60.8 °F /  16.0 °C 50.2 °F /  10.1 °C 30.2 in /  1020.9 hPa WNW 4 mph /  6.4 km/h 10 mph /  16.1 km/h 68 % 0 in /  0.0 mm
14:22 60.6 °F /  15.9 °C 50.7 °F /  10.4 °C 30.2 in /  1020.9 hPa Calm   10 mph /  16.1 km/h 70 % 0 in /  0.0 mm
14:32 60.4 °F /  15.8 °C 51.4 °F /  10.8 °C 30.2 in /  1020.9 hPa WNW 2 mph /  3.2 km/h 10 mph /  16.1 km/h 72 % 0 in /  0.0 mm
14:42 59.9 °F /  15.5 °C 50.5 °F /  10.3 °C 30.2 in /  1021.2 hPa West 6 mph /  9.7 km/h 7 mph /  11.3 km/h 71 % 0 in /  0.0 mm
14:47 59.7 °F /  15.4 °C 50.7 °F /  10.4 °C 30.2 in /  1021.2 hPa WSW 3 mph /  4.8 km/h 7 mph /  11.3 km/h 72 % 0 in /  0.0 mm
14:52 60.1 °F /  15.6 °C 50.7 °F /  10.4 °C 30.2 in /  1021.2 hPa West 5 mph /  8.0 km/h 10 mph /  16.1 km/h 71 % 0 in /  0.0 mm
14:57 60.6 °F /  15.9 °C 52.3 °F /  11.3 °C 30.2 in /  1020.9 hPa West 2 mph /  3.2 km/h 10 mph /  16.1 km/h 74 % 0 in /  0.0 mm
15:02 60.6 °F /  15.9 °C 52 °F /  11.1 °C 30.2 in /  1021.2 hPa West 4 mph /  6.4 km/h 7 mph /  11.3 km/h 73 % 0 in /  0.0 mm
15:12 61.2 °F /  16.2 °C 51.3 °F /  10.7 °C 30.2 in /  1020.9 hPa West 4 mph /  6.4 km/h 11 mph /  17.7 km/h 70 % 0 in /  0.0 mm
15:17 61 °F /  16.1 °C 51.4 °F /  10.8 °C 30.2 in /  1020.9 hPa NW 2 mph /  3.2 km/h 11 mph /  17.7 km/h 71 % 0 in /  0.0 mm
15:22 61.5 °F /  16.4 °C 52 °F /  11.1 °C 30.2 in /  1020.9 hPa WSW 4 mph /  6.4 km/h 10 mph /  16.1 km/h 71 % 0 in /  0.0 mm
15:32 61.2 °F /  16.2 °C 51.3 °F /  10.7 °C 30.2 in /  1020.9 hPa SW 3 mph /  4.8 km/h 12 mph /  19.3 km/h 70 % 0 in /  0.0 mm
15:37 61.2 °F /  16.2 °C 51.3 °F /  10.7 °C 30.2 in /  1020.9 hPa WSW 6 mph /  9.7 km/h 12 mph /  19.3 km/h 70 % 0 in /  0.0 mm
15:42 61.7 °F /  16.5 °C 51.4 °F /  10.8 °C 30.2 in /  1020.9 hPa West 3 mph /  4.8 km/h 13 mph /  20.9 km/h 69 % 0 in /  0.0 mm
15:47 61.9 °F /  16.6 °C 50.4 °F /  10.2 °C 30.2 in /  1020.9 hPa West 6 mph /  9.7 km/h 13 mph /  20.9 km/h 66 % 0 in /  0.0 mm
15:52 62.1 °F /  16.7 °C 50.5 °F /  10.3 °C 30.2 in /  1020.9 hPa WSW 5 mph /  8.0 km/h 13 mph /  20.9 km/h 66 % 0 in /  0.0 mm
15:57 62.2 °F /  16.8 °C 50 °F /  10.0 °C 30.2 in /  1020.9 hPa Calm   13 mph /  20.9 km/h 64 % 0 in /  0.0 mm
16:02 62.4 °F /  16.9 °C 50.9 °F /  10.5 °C 30.2 in /  1020.9 hPa West 6 mph /  9.7 km/h 11 mph /  17.7 km/h 66 % 0 in /  0.0 mm
16:12 62.1 °F /  16.7 °C 49.3 °F /  9.6 °C 30.1 in /  1020.5 hPa WNW 9 mph /  14.5 km/h 9 mph /  14.5 km/h 63 % 0 in /  0.0 mm
16:17 61.9 °F /  16.6 °C 48.7 °F /  9.3 °C 30.2 in /  1020.9 hPa West 4 mph /  6.4 km/h 9 mph /  14.5 km/h 62 % 0 in /  0.0 mm
16:22 61.9 °F /  16.6 °C 49.6 °F /  9.8 °C 30.2 in /  1020.9 hPa NW 3 mph /  4.8 km/h 9 mph /  14.5 km/h 64 % 0 in /  0.0 mm
16:32 62.4 °F /  16.9 °C 49.6 °F /  9.8 °C 30.2 in /  1020.9 hPa NW 3 mph /  4.8 km/h 9 mph /  14.5 km/h 63 % 0 in /  0.0 mm
16:42 62.4 °F /  16.9 °C 50 °F /  10.0 °C 30.2 in /  1021.2 hPa WNW 10 mph /  16.1 km/h 10 mph /  16.1 km/h 64 % 0 in /  0.0 mm
16:47 63.1 °F /  17.3 °C 50.7 °F /  10.4 °C 30.2 in /  1021.2 hPa West 4 mph /  6.4 km/h 10 mph /  16.1 km/h 64 % 0 in /  0.0 mm
16:52 62.8 °F /  17.1 °C 50 °F /  10.0 °C 30.2 in /  1021.2 hPa West 3 mph /  4.8 km/h 10 mph /  16.1 km/h 63 % 0 in /  0.0 mm
16:57 62.8 °F /  17.1 °C 50 °F /  10.0 °C 30.2 in /  1021.2 hPa NW 3 mph /  4.8 km/h 10 mph /  16.1 km/h 63 % 0 in /  0.0 mm
17:02 62.8 °F /  17.1 °C 50.9 °F /  10.5 °C 30.2 in /  1021.6 hPa West 2 mph /  3.2 km/h 10 mph /  16.1 km/h 65 % 0 in /  0.0 mm
17:12 62.8 °F /  17.1 °C 49.6 °F /  9.8 °C 30.2 in /  1021.2 hPa WNW 5 mph /  8.0 km/h 10 mph /  16.1 km/h 62 % 0 in /  0.0 mm
17:17 62.2 °F /  16.8 °C 50 °F /  10.0 °C 30.2 in /  1021.2 hPa NW 2 mph /  3.2 km/h 9 mph /  14.5 km/h 64 % 0 in /  0.0 mm
17:22 62.1 °F /  16.7 °C 50.5 °F /  10.3 °C 30.2 in /  1021.2 hPa NW 3 mph /  4.8 km/h 12 mph /  19.3 km/h 66 % 0 in /  0.0 mm
17:32 61.5 °F /  16.4 °C 49.6 °F /  9.8 °C 30.2 in /  1021.2 hPa NW 6 mph /  9.7 km/h 12 mph /  19.3 km/h 65 % 0 in /  0.0 mm
17:42 61.3 °F /  16.3 °C 49.8 °F /  9.9 °C 30.2 in /  1021.2 hPa WNW 2 mph /  3.2 km/h 9 mph /  14.5 km/h 66 % 0 in /  0.0 mm
17:47 61.2 °F /  16.2 °C 49.6 °F /  9.8 °C 30.2 in /  1021.2 hPa Calm   7 mph /  11.3 km/h 66 % 0 in /  0.0 mm
17:57 60.6 °F /  15.9 °C 49.6 °F /  9.8 °C 30.2 in /  1021.2 hPa Calm   5 mph /  8.0 km/h 67 % 0 in /  0.0 mm
18:02 60.4 °F /  15.8 °C 49.8 °F /  9.9 °C 30.2 in /  1021.2 hPa WNW 1 mph /  1.6 km/h 4 mph /  6.4 km/h 68 % 0 in /  0.0 mm
18:12 60.1 °F /  15.6 °C 50.2 °F /  10.1 °C 30.2 in /  1021.6 hPa WNW 1 mph /  1.6 km/h 3 mph /  4.8 km/h 70 % 0 in /  0.0 mm
18:17 60.1 °F /  15.6 °C 50.2 °F /  10.1 °C 30.2 in /  1021.6 hPa Calm   3 mph /  4.8 km/h 70 % 0 in /  0.0 mm
18:22 60.1 °F /  15.6 °C 50.2 °F /  10.1 °C 30.2 in /  1021.6 hPa West 1 mph /  1.6 km/h 3 mph /  4.8 km/h 70 % 0 in /  0.0 mm
18:32 60.1 °F /  15.6 °C 50.2 °F /  10.1 °C 30.2 in /  1021.6 hPa West 3 mph /  4.8 km/h 3 mph /  4.8 km/h 70 % 0 in /  0.0 mm
18:37 60.1 °F /  15.6 °C 50.2 °F /  10.1 °C 30.2 in /  1021.6 hPa Calm   4 mph /  6.4 km/h 70 % 0 in /  0.0 mm
18:42 60.1 °F /  15.6 °C 50.7 °F /  10.4 °C 30.2 in /  1021.6 hPa West 1 mph /  1.6 km/h 4 mph /  6.4 km/h 71 % 0 in /  0.0 mm
18:52 60.6 °F /  15.9 °C 51.6 °F /  10.9 °C 30.2 in /  1021.6 hPa Calm   4 mph /  6.4 km/h 72 % 0 in /  0.0 mm
18:57 61.2 °F /  16.2 °C 52.9 °F /  11.6 °C 30.2 in /  1021.6 hPa Calm   3 mph /  4.8 km/h 74 % 0 in /  0.0 mm
19:02 61 °F /  16.1 °C 51.4 °F /  10.8 °C 30.2 in /  1021.6 hPa WNW 2 mph /  3.2 km/h 3 mph /  4.8 km/h 71 % 0 in /  0.0 mm
19:12 59.9 °F /  15.5 °C 51.3 °F /  10.7 °C 30.2 in /  1021.9 hPa Calm   2 mph /  3.2 km/h 73 % 0 in /  0.0 mm
19:17 59.4 °F /  15.2 °C 51.4 °F /  10.8 °C 30.2 in /  1021.9 hPa West 1 mph /  1.6 km/h 3 mph /  4.8 km/h 75 % 0 in /  0.0 mm
19:22 58.6 °F /  14.8 °C 51.4 °F /  10.8 °C 30.2 in /  1021.9 hPa Calm   3 mph /  4.8 km/h 77 % 0 in /  0.0 mm
19:32 57.4 °F /  14.1 °C 50.9 °F /  10.5 °C 30.2 in /  1021.9 hPa Calm   3 mph /  4.8 km/h 79 % 0 in /  0.0 mm
19:37 57 °F /  13.9 °C 51.3 °F /  10.7 °C 30.2 in /  1021.9 hPa Calm   3 mph /  4.8 km/h 81 % 0 in /  0.0 mm
19:42 56.7 °F /  13.7 °C 51.6 °F /  10.9 °C 30.2 in /  1021.9 hPa Calm   3 mph /  4.8 km/h 83 % 0 in /  0.0 mm
19:47 56.1 °F /  13.4 °C 51.6 °F /  10.9 °C 30.2 in /  1021.9 hPa Calm   1 mph /  1.6 km/h 85 % 0 in /  0.0 mm
19:52 55.6 °F /  13.1 °C 51.4 °F /  10.8 °C 30.2 in /  1022.2 hPa Calm     86 % 0 in /  0.0 mm
20:02 54.9 °F /  12.7 °C 51.4 °F /  10.8 °C 30.2 in /  1021.9 hPa Calm   1 mph /  1.6 km/h 88 % 0 in /  0.0 mm
20:12 54.1 °F /  12.3 °C 50.9 °F /  10.5 °C 30.2 in /  1021.9 hPa Calm   1 mph /  1.6 km/h 89 % 0 in /  0.0 mm
20:17 54 °F /  12.2 °C 51.1 °F /  10.6 °C 30.2 in /  1022.2 hPa Calm   1 mph /  1.6 km/h 90 % 0 in /  0.0 mm
20:22 53.8 °F /  12.1 °C 50.9 °F /  10.5 °C 30.2 in /  1022.2 hPa Calm   1 mph /  1.6 km/h 90 % 0 in /  0.0 mm
20:27 53.6 °F /  12.0 °C 50.7 °F /  10.4 °C 30.2 in /  1022.2 hPa Calm   1 mph /  1.6 km/h 90 % 0 in /  0.0 mm
20:32 53.4 °F /  11.9 °C 50.2 °F /  10.1 °C 30.2 in /  1022.2 hPa Calm   1 mph /  1.6 km/h 89 % 0 in /  0.0 mm
20:42 53.1 °F /  11.7 °C 49.8 °F /  9.9 °C 30.2 in /  1022.6 hPa Calm   1 mph /  1.6 km/h 89 % 0 in /  0.0 mm
20:47 53.1 °F /  11.7 °C 50.2 °F /  10.1 °C 30.2 in /  1022.6 hPa Calm   1 mph /  1.6 km/h 90 % 0 in /  0.0 mm
20:52 52.9 °F /  11.6 °C 50 °F /  10.0 °C 30.2 in /  1022.6 hPa Calm   1 mph /  1.6 km/h 90 % 0 in /  0.0 mm
20:57 52.9 °F /  11.6 °C 50.4 °F /  10.2 °C 30.2 in /  1022.6 hPa Calm   1 mph /  1.6 km/h 91 % 0 in /  0.0 mm
21:02 52.5 °F /  11.4 °C 50 °F /  10.0 °C 30.2 in /  1022.9 hPa Calm   1 mph /  1.6 km/h 91 % 0 in /  0.0 mm
21:07 52.3 °F /  11.3 °C 49.8 °F /  9.9 °C 30.2 in /  1022.6 hPa Calm     91 % 0 in /  0.0 mm
21:12 52.2 °F /  11.2 °C 49.6 °F /  9.8 °C 30.2 in /  1022.6 hPa Calm     91 % 0 in /  0.0 mm
21:17 52.3 °F /  11.3 °C 50 °F /  10.0 °C 30.2 in /  1022.6 hPa Calm     92 % 0 in /  0.0 mm
21:22 52.5 °F /  11.4 °C 50 °F /  10.0 °C 30.2 in /  1022.6 hPa Calm   1 mph /  1.6 km/h 91 % 0 in /  0.0 mm
21:27 52.3 °F /  11.3 °C 49.5 °F /  9.7 °C 30.2 in /  1022.9 hPa Calm   1 mph /  1.6 km/h 90 % 0 in /  0.0 mm
21:32 52 °F /  11.1 °C 49.5 °F /  9.7 °C 30.2 in /  1022.9 hPa Calm   1 mph /  1.6 km/h 91 % 0 in /  0.0 mm
21:37 51.8 °F /  11.0 °C 49.3 °F /  9.6 °C 30.2 in /  1022.6 hPa Calm   1 mph /  1.6 km/h 91 % 0 in /  0.0 mm
21:47 52.2 °F /  11.2 °C 49.8 °F /  9.9 °C 30.2 in /  1022.6 hPa Calm   1 mph /  1.6 km/h 92 % 0 in /  0.0 mm
21:52 52 °F /  11.1 °C 49.5 °F /  9.7 °C 30.2 in /  1022.6 hPa Calm   1 mph /  1.6 km/h 91 % 0 in /  0.0 mm
21:57 51.6 °F /  10.9 °C 49.1 °F /  9.5 °C 30.2 in /  1022.9 hPa Calm     91 % 0 in /  0.0 mm
22:02 51.4 °F /  10.8 °C 49.3 °F /  9.6 °C 30.2 in /  1022.6 hPa Calm     92 % 0 in /  0.0 mm
22:12 51.3 °F /  10.7 °C 49.1 °F /  9.5 °C 30.2 in /  1022.9 hPa Calm     92 % 0 in /  0.0 mm
22:17 51.1 °F /  10.6 °C 48.9 °F /  9.4 °C 30.2 in /  1022.6 hPa Calm     92 % 0 in /  0.0 mm
22:22 50.9 °F /  10.5 °C 48.7 °F /  9.3 °C 30.2 in /  1022.9 hPa Calm   1 mph /  1.6 km/h 92 % 0 in /  0.0 mm
22:32 50.9 °F /  10.5 °C 48.9 °F /  9.4 °C 30.2 in /  1022.6 hPa Calm   1 mph /  1.6 km/h 93 % 0 in /  0.0 mm
22:42 50.7 °F /  10.4 °C 48.6 °F /  9.2 °C 30.2 in /  1022.6 hPa Calm   1 mph /  1.6 km/h 92 % 0 in /  0.0 mm
22:47 50.7 °F /  10.4 °C 48.6 °F /  9.2 °C 30.2 in /  1022.6 hPa Calm   1 mph /  1.6 km/h 92 % 0 in /  0.0 mm
22:52 50.5 °F /  10.3 °C 48.4 °F /  9.1 °C 30.2 in /  1022.6 hPa Calm   1 mph /  1.6 km/h 92 % 0 in /  0.0 mm
22:57 50.4 °F /  10.2 °C 48.2 °F /  9.0 °C 30.2 in /  1022.6 hPa Calm   1 mph /  1.6 km/h 92 % 0 in /  0.0 mm
23:02 50.4 °F /  10.2 °C 48.4 °F /  9.1 °C 30.2 in /  1022.6 hPa Calm   1 mph /  1.6 km/h 93 % 0 in /  0.0 mm
23:12 50 °F /  10.0 °C 48 °F /  8.9 °C 30.2 in /  1022.2 hPa Calm   1 mph /  1.6 km/h 93 % 0 in /  0.0 mm
23:17 50.2 °F /  10.1 °C 48.2 °F /  9.0 °C 30.2 in /  1022.6 hPa Calm   1 mph /  1.6 km/h 93 % 0 in /  0.0 mm
23:22 50.2 °F /  10.1 °C 48.2 °F /  9.0 °C 30.2 in /  1022.6 hPa Calm   1 mph /  1.6 km/h 93 % 0 in /  0.0 mm
23:27 50.2 °F /  10.1 °C 48.2 °F /  9.0 °C 30.2 in /  1022.2 hPa Calm   1 mph /  1.6 km/h 93 % 0 in /  0.0 mm
23:32 50.2 °F /  10.1 °C 48.2 °F /  9.0 °C 30.2 in /  1022.2 hPa Calm   1 mph /  1.6 km/h 93 % 0 in /  0.0 mm
23:42 49.6 °F /  9.8 °C 47.7 °F /  8.7 °C 30.2 in /  1022.2 hPa Calm     93 % 0 in /  0.0 mm
23:47 49.5 °F /  9.7 °C 47.5 °F /  8.6 °C 30.2 in /  1022.2 hPa Calm     93 % 0 in /  0.0 mm
23:52 49.1 °F /  9.5 °C 47.1 °F /  8.4 °C 30.2 in /  1022.2 hPa Calm   1 mph /  1.6 km/h 93 % 0 in /  0.0 mm
23:57 48.7 °F /  9.3 °C 46.8 °F /  8.2 °C 30.2 in /  1022.6 hPa Calm   1 mph /  1.6 km/h 93 % 0 in /  0.0 mm
Meteo18
Compliments of Weather Underground - 4 mb

Script developed by  Jim McMurry - jmcmurry@mwt.net Adapted for the template by  Wim van der Kuil - Leuven-Template.eu

You find our weather info also at:

European Weather Network

Weather Underground

Equipment we use:

Weather-station
Davis Vue

Weather-program
Meteohub

Weather-server
Raspberry PI 2 B+

Provider
1 and 1

Davis Vue

Meteohub

Raspberry PI 2 B+

1 and 1